Altus Air Force Base
KLTS : rendu visible

Aérodrome :











RETROUVEZ-NOUS SUR...

 
LOGIN :

S'inscrire | Disclaimer

   EN    FR    IT 

 









Légende :    VFR   VFR Marginal   IFR   IFR Intensif   IFR Très Intensif
Visi : 
Plafond : 
>= 8 km
>= 3000ft
5 à 8 km
1000 à 3000 ft
1500m à 5 km
500 à 1000 ft
800 à 1500m
200 à 500 ft
< 800m
< 200 ft
Symboles :   Orages  Brouillard  Fortes neiges  Fortes précipitations  Vent > 20 kt






- Altitude de l'aérodrome : 1382 ft


KLTS - Altus Air Force Base

DERNIER METAR :
  • 181656Z AUTO 03022G29KT 10SM CLR 08/M08 A3042 RMK AO2 PK WND 01036/42 SLP304 T00761081 $

METARs EXPIRÉS :
  • 181556Z AUTO 03020G26KT 10SM CLR 06/M07 A3041 RMK AO2 PK WND 01031/43 SLP303 T00591070 $
  • 181456Z AUTO 03016G24KT 10SM CLR 04/M05 A3037 RMK AO2 PK WND 02029/09 SLP291 T00421050 52055 $

TAF AMD TAF KLTS
Valide du 18 à 02h jusqu'au 19 à 07h UTC


180210Z 1802/1907 16012KT 9999 OVC004 510052 QNH2994INS
BECMG 1802/1803 21008KT 4800 BR OVC003 510052 510503 QNH2998INS
BECMG 1804/1805 VRB06KT 0400 FG VV001 WS012/29040KT QNH3001INS
BECMG 1812/1813 36010G15KT 9999 NSW SKC WS013/36046KT QNH3020INS
BECMG 1817/1818 02020G30KT 9999 SKC 510002 QNH3037INS
BECMG 1820/1821 02012KT 9999 SKC QNH3038INS
BECMG 1823/1824 VRB06KT 9999 SKC QNH3041INS TX08/1821Z TN02/1812Z LAST NO AMDS AFT 1802 NEXT 2109



MET'MAP, la Météo Aéronautique d'un coup d'oeil ! - Copyright ORBIFLY Décembre 2007 - Disclaimer

ORBIFLY MET'MAP TEAM :

Programmation & Développement : Alexandra Zaïnal
Sur une idée originale de : Baudouin d'Aumeries
Assistance à la programmation : Marc-Olivier Méhu
Soutien technique & logistique : Manuel Goepfert

Contact : metmap@orbifly.com




SOURCES & CREDITS :

   NOAA       Earth
Advisory